createdAt,value
2023-04-15T00:01:21.613Z,8.50
2023-04-15T00:03:52.579Z,7.50
2023-04-15T00:06:21.856Z,7.70
2023-04-15T00:08:51.000Z,6.90
2023-04-15T00:11:20.018Z,9.20
2023-04-15T00:13:51.554Z,7.90
2023-04-15T00:16:20.534Z,8.20
2023-04-15T00:18:49.251Z,7.70
2023-04-15T00:21:20.424Z,8.60
2023-04-15T00:23:52.701Z,8.70
2023-04-15T00:26:20.991Z,7.60
2023-04-15T00:28:54.197Z,7.60
2023-04-15T00:31:23.775Z,6.60
2023-04-15T00:33:52.528Z,7.40
2023-04-15T00:36:22.473Z,10.80
2023-04-15T00:38:52.431Z,8.10
2023-04-15T00:41:23.275Z,7.20
2023-04-15T00:43:52.824Z,8.60
2023-04-15T00:46:22.223Z,6.70
2023-04-15T00:48:53.002Z,6.90
2023-04-15T00:51:21.667Z,8.50
2023-04-15T00:53:51.902Z,9.40
2023-04-15T00:56:25.847Z,9.90
2023-04-15T00:58:55.228Z,7.50
2023-04-15T01:01:23.305Z,6.40
2023-04-15T01:03:52.425Z,7.00
2023-04-15T01:06:21.515Z,7.80
2023-04-15T01:08:49.638Z,8.40
2023-04-15T01:11:19.150Z,7.90
2023-04-15T01:13:49.198Z,8.80
2023-04-15T01:16:17.797Z,6.60
2023-04-15T01:18:46.080Z,7.80
2023-04-15T01:21:14.550Z,6.60
2023-04-15T01:23:43.349Z,7.00
2023-04-15T01:26:14.276Z,7.80
2023-04-15T01:28:42.864Z,7.10
2023-04-15T01:31:14.775Z,7.80
2023-04-15T01:33:43.446Z,6.90
2023-04-15T01:36:11.602Z,7.50
2023-04-15T01:38:40.367Z,7.30
2023-04-15T01:41:08.845Z,7.60
2023-04-15T01:43:37.500Z,7.80
2023-04-15T01:46:06.371Z,7.30
2023-04-15T01:48:34.686Z,6.80
2023-04-15T01:51:04.990Z,9.80
2023-04-15T01:53:34.366Z,8.20
2023-04-15T01:56:04.417Z,7.90
2023-04-15T01:58:32.638Z,7.70
2023-04-15T02:01:04.030Z,7.50
2023-04-15T02:03:34.235Z,9.30
2023-04-15T02:06:02.591Z,8.60
2023-04-15T02:08:35.983Z,7.80
2023-04-15T02:11:05.019Z,8.80
2023-04-15T02:13:33.476Z,10.10
2023-04-15T02:16:01.650Z,8.80
2023-04-15T02:18:35.901Z,8.00
2023-04-15T02:21:06.171Z,7.10
2023-04-15T02:23:34.258Z,9.90
2023-04-15T02:26:04.835Z,8.60
2023-04-15T02:28:33.427Z,9.60
2023-04-15T02:31:05.691Z,8.90
2023-04-15T02:33:34.171Z,9.80
2023-04-15T02:36:02.318Z,10.60
2023-04-15T02:38:32.060Z,9.90
2023-04-15T02:41:01.954Z,10.30
2023-04-15T02:43:30.654Z,11.70
2023-04-15T02:45:58.850Z,10.90
2023-04-15T02:48:28.537Z,11.10
2023-04-15T02:51:17.365Z,9.50
2023-04-15T02:53:46.553Z,9.90
2023-04-15T02:56:16.048Z,10.50
2023-04-15T02:58:45.092Z,9.30
2023-04-15T03:01:13.802Z,11.00
2023-04-15T03:03:42.258Z,8.80
2023-04-15T03:06:10.789Z,9.40
2023-04-15T03:08:39.909Z,9.90
2023-04-15T03:11:08.155Z,10.20
2023-04-15T03:13:39.553Z,8.70
2023-04-15T03:16:14.681Z,9.10
2023-04-15T03:18:44.221Z,8.90
2023-04-15T03:21:12.633Z,10.60
2023-04-15T03:23:48.871Z,10.60
2023-04-15T03:26:30.542Z,10.00
2023-04-15T03:29:10.357Z,9.60
2023-04-15T03:31:39.386Z,9.20
2023-04-15T03:34:07.687Z,8.90
2023-04-15T03:36:37.048Z,9.60
2023-04-15T03:39:05.776Z,8.90
2023-04-15T03:41:33.931Z,9.20
2023-04-15T03:44:05.909Z,9.40
2023-04-15T03:46:34.582Z,9.50
2023-04-15T03:49:03.072Z,9.20
2023-04-15T03:51:31.789Z,10.10
2023-04-15T03:54:00.196Z,9.40
2023-04-15T03:56:28.335Z,9.30
2023-04-15T03:58:57.480Z,9.40
2023-04-15T04:01:25.542Z,7.90
2023-04-15T04:03:53.861Z,8.90
2023-04-15T04:06:23.369Z,10.10
2023-04-15T04:08:52.182Z,8.90
2023-04-15T04:11:21.076Z,8.00
2023-04-15T04:13:55.089Z,11.00
2023-04-15T04:16:23.726Z,12.40
2023-04-15T04:18:51.942Z,8.90
2023-04-15T04:21:21.185Z,9.10
2023-04-15T04:23:49.762Z,11.70
2023-04-15T04:26:17.914Z,10.20
2023-04-15T04:28:46.161Z,12.00
2023-04-15T04:31:14.242Z,9.80
2023-04-15T04:33:43.240Z,9.30
2023-04-15T04:36:11.326Z,9.30
2023-04-15T04:38:41.471Z,11.00
2023-04-15T04:41:09.659Z,11.10
2023-04-15T04:43:37.803Z,10.80
2023-04-15T04:46:06.471Z,11.20
2023-04-15T04:48:35.902Z,11.60
2023-04-15T04:51:04.148Z,10.20
2023-04-15T04:53:33.867Z,10.20
2023-04-15T04:56:02.421Z,13.10
2023-04-15T04:58:30.875Z,11.30
2023-04-15T05:01:00.158Z,10.90
2023-04-15T05:03:28.592Z,11.00
2023-04-15T05:05:57.065Z,8.90
2023-04-15T05:08:30.128Z,9.40
2023-04-15T05:10:58.675Z,10.40
2023-04-15T05:13:27.247Z,10.70
2023-04-15T05:15:57.166Z,11.90
2023-04-15T05:18:31.163Z,10.40
2023-04-15T05:20:59.660Z,9.40
2023-04-15T05:23:27.836Z,10.40
2023-04-15T05:25:56.112Z,10.10
2023-04-15T05:28:25.270Z,9.10
2023-04-15T05:30:53.407Z,11.00
2023-04-15T05:33:22.614Z,8.50
2023-04-15T05:35:52.501Z,11.20
2023-04-15T05:38:20.482Z,8.90
2023-04-15T05:40:48.737Z,8.70
2023-04-15T05:43:19.622Z,8.10
2023-04-15T05:45:51.747Z,11.60
2023-04-15T05:48:20.373Z,8.00
2023-04-15T05:50:48.499Z,12.00
2023-04-15T05:53:18.032Z,9.90
2023-04-15T05:55:46.908Z,12.70
2023-04-15T05:58:15.051Z,10.50
2023-04-15T06:00:47.731Z,9.30
2023-04-15T06:03:17.469Z,9.90
2023-04-15T06:05:45.847Z,7.80
2023-04-15T06:08:14.127Z,7.30
2023-04-15T06:10:42.299Z,8.60
2023-04-15T06:13:13.088Z,7.90
2023-04-15T06:15:42.493Z,8.70
2023-04-15T06:18:11.840Z,8.10
2023-04-15T06:20:40.351Z,8.60
2023-04-15T06:23:08.378Z,9.20
2023-04-15T06:25:36.514Z,8.50
2023-04-15T06:28:05.052Z,10.50
2023-04-15T06:30:33.222Z,7.60
2023-04-15T06:46:37.328Z,8.20
2023-04-15T06:49:04.862Z,7.40
2023-04-15T06:51:32.149Z,8.20
2023-04-15T06:53:58.910Z,11.40
2023-04-15T06:56:26.725Z,7.90
2023-04-15T06:58:53.485Z,10.20
2023-04-15T07:01:22.645Z,6.60
2023-04-15T07:03:49.776Z,10.90
2023-04-15T07:06:16.685Z,7.10
2023-04-15T07:08:45.807Z,9.80
2023-04-15T07:11:13.758Z,7.90
2023-04-15T07:13:41.079Z,9.00
2023-04-15T07:16:11.207Z,7.30
2023-04-15T07:18:38.217Z,7.80
2023-04-15T07:21:05.419Z,8.00
2023-04-15T07:23:32.267Z,8.30
2023-04-15T07:25:59.642Z,7.90
2023-04-15T07:28:27.101Z,7.40
2023-04-15T07:30:54.971Z,9.90
2023-04-15T07:33:29.565Z,8.50
2023-04-15T07:35:56.792Z,8.30
2023-04-15T07:38:23.998Z,11.30
2023-04-15T07:40:51.453Z,7.60
2023-04-15T07:43:20.752Z,7.10
2023-04-15T07:45:47.771Z,8.50
2023-04-15T07:48:14.741Z,7.60
2023-04-15T07:50:41.691Z,8.50
2023-04-15T07:53:09.684Z,7.40
2023-04-15T07:55:36.570Z,8.70
2023-04-15T07:58:05.531Z,7.30
2023-04-15T08:00:35.522Z,8.20
2023-04-15T08:03:03.483Z,7.20
2023-04-15T08:05:32.963Z,7.00
2023-04-15T08:08:01.483Z,9.60
2023-04-15T08:10:29.200Z,7.50
2023-04-15T08:12:55.956Z,7.80
2023-04-15T08:15:25.130Z,7.50
2023-04-15T08:17:53.145Z,11.50
2023-04-15T08:20:21.894Z,8.00
2023-04-15T08:22:51.298Z,6.50
2023-04-15T08:25:20.631Z,7.20
2023-04-15T08:27:48.937Z,7.60
2023-04-15T08:30:18.961Z,8.30
2023-04-15T08:32:46.545Z,8.80
2023-04-15T08:35:13.553Z,6.40
2023-04-15T08:37:43.484Z,7.90
2023-04-15T08:40:10.996Z,7.30
2023-04-15T08:42:47.974Z,6.70
2023-04-15T08:45:18.688Z,7.40
2023-04-15T08:47:46.866Z,7.10
2023-04-15T08:50:13.765Z,7.20
2023-04-15T08:52:41.675Z,7.20
2023-04-15T08:55:09.022Z,6.80
2023-04-15T08:57:35.781Z,9.30
2023-04-15T09:00:04.811Z,6.60
2023-04-15T09:02:32.533Z,7.70
2023-04-15T09:04:59.358Z,8.90
2023-04-15T09:07:26.466Z,10.40
2023-04-15T09:09:53.596Z,6.60
2023-04-15T09:12:20.306Z,7.60
2023-04-15T09:14:47.691Z,7.90
2023-04-15T09:17:14.380Z,7.60
2023-04-15T09:19:41.274Z,7.40
2023-04-15T09:22:07.875Z,9.30
2023-04-15T09:24:38.926Z,7.70
2023-04-15T09:27:06.381Z,6.80
2023-04-15T09:29:33.343Z,7.30
2023-04-15T09:32:14.176Z,7.80
2023-04-15T09:34:42.389Z,8.00
2023-04-15T09:37:10.556Z,9.70
2023-04-15T09:39:52.914Z,8.40
2023-04-15T09:42:27.008Z,8.00
2023-04-15T09:44:53.959Z,8.90
2023-04-15T09:47:28.335Z,7.90
2023-04-15T09:49:56.606Z,7.30
2023-04-15T09:52:23.500Z,8.50
2023-04-15T09:54:50.376Z,11.40
2023-04-15T09:57:17.037Z,8.20
2023-04-15T09:59:43.829Z,9.60
2023-04-15T10:02:10.915Z,8.80
2023-04-15T10:04:40.016Z,8.20
2023-04-15T10:07:10.996Z,6.80
2023-04-15T10:09:38.128Z,7.30
2023-04-15T10:12:05.011Z,7.60
2023-04-15T10:14:33.881Z,6.60
2023-04-15T10:17:04.513Z,8.10
2023-04-15T10:19:33.259Z,7.30
2023-04-15T10:22:00.011Z,8.50
2023-04-15T10:24:27.206Z,8.40
2023-04-15T10:26:54.072Z,7.30
2023-04-15T10:29:20.907Z,9.90
2023-04-15T10:31:47.731Z,7.10
2023-04-15T10:34:15.509Z,6.90
2023-04-15T10:36:42.305Z,7.50
2023-04-15T10:39:33.675Z,10.70
2023-04-15T10:42:18.982Z,7.60
2023-04-15T10:44:51.028Z,9.10
2023-04-15T10:47:19.567Z,7.10
2023-04-15T10:49:57.602Z,12.60
2023-04-15T10:52:26.979Z,7.40
2023-04-15T10:55:15.889Z,9.00
2023-04-15T10:57:44.985Z,7.80
2023-04-15T11:00:15.839Z,9.10
2023-04-15T11:02:43.625Z,8.80
2023-04-15T11:05:11.043Z,9.70
2023-04-15T11:07:44.130Z,7.30
2023-04-15T11:10:20.877Z,7.90
2023-04-15T11:12:50.619Z,7.40
2023-04-15T11:15:40.309Z,7.70
2023-04-15T11:18:14.028Z,8.20
2023-04-15T11:20:44.540Z,6.50
2023-04-15T11:23:15.326Z,8.40
2023-04-15T11:25:42.598Z,8.70
2023-04-15T11:28:09.910Z,7.90
2023-04-15T11:30:36.873Z,8.10
2023-04-15T11:33:08.106Z,7.90
2023-04-15T11:35:35.327Z,10.00
2023-04-15T11:38:03.331Z,7.20
2023-04-15T11:40:31.298Z,8.50
2023-04-15T11:43:07.435Z,7.20
2023-04-15T11:45:35.552Z,9.70
2023-04-15T11:48:09.912Z,7.10
2023-04-15T11:50:39.934Z,7.80
2023-04-15T11:53:08.678Z,7.30
2023-04-15T11:55:46.521Z,8.60
2023-04-15T11:58:16.358Z,7.90
2023-04-15T12:00:54.192Z,8.60
2023-04-15T12:03:23.551Z,6.60
2023-04-15T12:06:13.601Z,8.00
2023-04-15T12:09:00.884Z,7.90
2023-04-15T12:11:34.197Z,7.20
2023-04-15T12:14:25.066Z,9.40
2023-04-15T12:16:58.199Z,9.10
2023-04-15T12:19:26.783Z,7.30
2023-04-15T12:22:01.212Z,10.70
2023-04-15T12:24:30.390Z,7.70
2023-04-15T12:26:57.536Z,6.90
2023-04-15T12:29:25.667Z,10.10
2023-04-15T12:32:20.171Z,8.90
2023-04-15T12:34:51.073Z,8.30
2023-04-15T12:37:17.790Z,9.90
2023-04-15T12:39:48.165Z,8.50
2023-04-15T12:42:15.512Z,7.30
2023-04-15T12:44:42.513Z,8.50
2023-04-15T12:47:10.042Z,7.20
2023-04-15T12:49:37.067Z,9.60
2023-04-15T12:52:03.952Z,11.20
2023-04-15T12:54:31.124Z,8.10
2023-04-15T12:56:58.128Z,7.20
2023-04-15T12:59:25.704Z,7.70
2023-04-15T13:01:53.019Z,7.60
2023-04-15T13:04:20.280Z,8.10
2023-04-15T13:06:47.301Z,6.80
2023-04-15T13:09:14.374Z,7.30
2023-04-15T13:11:41.773Z,7.20
2023-04-15T13:14:08.606Z,9.20
2023-04-15T13:16:36.923Z,8.60
2023-04-15T13:19:03.633Z,5.60
2023-04-15T13:21:31.601Z,8.60
2023-04-15T13:23:58.253Z,6.60
2023-04-15T13:26:24.946Z,7.20
2023-04-15T13:28:51.513Z,7.50
2023-04-15T13:31:18.111Z,8.40
2023-04-15T13:33:44.876Z,8.40
2023-04-15T13:36:11.541Z,6.80
2023-04-15T13:38:38.232Z,6.60
2023-04-15T13:41:05.474Z,9.00
2023-04-15T13:43:33.651Z,8.60
2023-04-15T13:46:00.831Z,7.80
2023-04-15T13:48:27.970Z,7.60
2023-04-15T13:50:54.549Z,7.90
2023-04-15T13:53:34.023Z,7.10
2023-04-15T13:56:09.146Z,8.40
2023-04-15T13:58:36.384Z,7.50
2023-04-15T14:01:05.808Z,10.10
2023-04-15T14:03:37.170Z,9.30
2023-04-15T14:06:05.033Z,9.00
2023-04-15T14:08:32.163Z,7.90
2023-04-15T14:10:59.094Z,7.60
2023-04-15T14:13:25.876Z,7.00
2023-04-15T14:15:52.743Z,7.20
2023-04-15T14:18:19.737Z,7.00
2023-04-15T14:20:47.258Z,10.40
2023-04-15T14:23:14.029Z,9.40
2023-04-15T14:25:40.708Z,8.00
2023-04-15T14:28:07.352Z,6.60
2023-04-15T14:30:34.020Z,9.10
2023-04-15T14:33:00.919Z,6.90
2023-04-15T14:35:27.821Z,7.10
2023-04-15T14:37:55.116Z,6.50
2023-04-15T14:40:21.967Z,7.90
2023-04-15T14:42:48.786Z,8.30
2023-04-15T14:45:15.721Z,8.00
2023-04-15T14:47:42.692Z,8.00
2023-04-15T14:50:09.947Z,7.60
2023-04-15T14:52:39.435Z,7.60
2023-04-15T14:55:12.515Z,8.20
2023-04-15T14:57:40.584Z,8.60
2023-04-15T15:00:09.223Z,7.10
2023-04-15T15:02:39.659Z,7.50
2023-04-15T15:05:09.397Z,7.60
2023-04-15T15:07:38.732Z,7.50
2023-04-15T15:10:06.433Z,6.90
2023-04-15T15:12:33.722Z,8.40
2023-04-15T15:15:04.988Z,7.90
2023-04-15T15:17:37.845Z,6.80
2023-04-15T15:20:05.359Z,6.80
2023-04-15T15:22:32.312Z,7.40
2023-04-15T15:25:00.286Z,8.60
2023-04-15T15:27:27.011Z,8.20
2023-04-15T15:29:53.768Z,7.80
2023-04-15T15:32:20.403Z,7.50
2023-04-15T15:34:47.059Z,9.60
2023-04-15T15:37:13.735Z,8.90
2023-04-15T15:39:42.769Z,8.20
2023-04-15T15:42:09.774Z,7.90
2023-04-15T15:44:38.259Z,8.50
2023-04-15T15:47:05.465Z,9.30
2023-04-15T15:49:32.376Z,7.70
2023-04-15T15:51:59.284Z,7.20
2023-04-15T15:54:26.131Z,8.30
2023-04-15T15:56:52.954Z,6.20
2023-04-15T15:59:19.618Z,7.80
2023-04-15T16:01:47.584Z,7.30
2023-04-15T16:04:14.668Z,9.20
2023-04-15T16:06:44.047Z,7.30
2023-04-15T16:09:12.619Z,7.20
2023-04-15T16:11:39.472Z,7.60
2023-04-15T16:14:07.323Z,9.70
2023-04-15T16:16:38.333Z,8.10
2023-04-15T16:19:05.215Z,10.30
2023-04-15T16:21:32.142Z,7.50
2023-04-15T16:23:58.843Z,9.40
2023-04-15T16:26:25.839Z,6.60
2023-04-15T16:28:52.552Z,8.40
2023-04-15T16:31:19.191Z,6.90
2023-04-15T16:33:45.900Z,8.70
2023-04-15T16:36:13.059Z,7.50
2023-04-15T16:38:40.074Z,8.30
2023-04-15T16:41:06.820Z,9.90
2023-04-15T16:43:33.638Z,7.10
2023-04-15T16:46:00.627Z,7.90
2023-04-15T16:48:27.396Z,6.70
2023-04-15T16:50:54.551Z,6.30
2023-04-15T16:53:22.466Z,8.00
2023-04-15T16:55:49.219Z,7.60
2023-04-15T16:58:16.450Z,9.90
2023-04-15T17:00:43.276Z,8.80
2023-04-15T17:03:10.595Z,7.70
2023-04-15T17:05:38.211Z,8.00
2023-04-15T17:08:05.270Z,7.80
2023-04-15T17:10:33.575Z,10.00
2023-04-15T17:13:00.366Z,8.00
2023-04-15T17:15:27.341Z,8.80
2023-04-15T17:17:54.509Z,9.90
2023-04-15T17:20:21.328Z,8.40
2023-04-15T17:22:48.086Z,8.30
2023-04-15T17:25:15.343Z,8.80
2023-04-15T17:27:42.957Z,9.50
2023-04-15T17:30:10.026Z,9.70
2023-04-15T17:32:38.780Z,10.20
2023-04-15T17:35:06.044Z,7.30
2023-04-15T17:37:33.798Z,8.50
2023-04-15T17:40:00.687Z,9.00
2023-04-15T17:42:27.465Z,9.40
2023-04-15T17:44:54.326Z,9.00
2023-04-15T17:47:20.964Z,10.80
2023-04-15T17:49:47.597Z,9.00
2023-04-15T17:52:14.616Z,8.70
2023-04-15T17:54:42.553Z,7.10
2023-04-15T17:57:09.274Z,9.20
2023-04-15T17:59:36.509Z,7.30
2023-04-15T18:02:03.305Z,7.90
2023-04-15T18:04:31.121Z,8.30
2023-04-15T18:06:57.853Z,8.50
2023-04-15T18:09:24.840Z,8.00
2023-04-15T18:11:51.586Z,8.00
2023-04-15T18:14:32.943Z,9.00
2023-04-15T18:17:01.909Z,8.00
2023-04-15T18:19:29.562Z,7.40
2023-04-15T18:21:57.359Z,7.80
2023-04-15T18:24:24.305Z,7.40
2023-04-15T18:26:51.794Z,8.20
2023-04-15T18:29:18.702Z,8.60
2023-04-15T18:31:45.758Z,8.90
2023-04-15T18:34:12.412Z,9.40
2023-04-15T18:36:39.112Z,9.30
2023-04-15T18:39:06.012Z,7.10
2023-04-15T18:41:33.686Z,8.20
2023-04-15T18:44:00.449Z,7.60
2023-04-15T18:46:27.454Z,7.80
2023-04-15T18:48:54.303Z,8.80
2023-04-15T19:04:04.358Z,7.50
2023-04-15T19:06:32.903Z,6.10
2023-04-15T19:09:01.142Z,6.90
2023-04-15T19:11:29.439Z,7.20
2023-04-15T19:13:59.131Z,8.30
2023-04-15T19:16:27.227Z,7.30
2023-04-15T19:18:55.244Z,8.20
2023-04-15T19:21:23.432Z,8.00
2023-04-15T19:23:51.701Z,10.00
2023-04-15T19:26:19.988Z,8.80
2023-04-15T19:28:48.303Z,7.90
2023-04-15T19:31:16.661Z,7.70
2023-04-15T19:33:44.768Z,11.60
2023-04-15T19:36:12.846Z,9.60
2023-04-15T19:38:41.006Z,9.50
2023-04-15T19:41:10.489Z,11.80
2023-04-15T19:43:38.542Z,8.80
2023-04-15T19:46:06.688Z,9.70
2023-04-15T19:48:38.085Z,10.60
2023-04-15T19:51:06.264Z,9.10
2023-04-15T19:53:34.457Z,11.90
2023-04-15T19:56:02.676Z,9.90
2023-04-15T19:58:32.540Z,10.60
2023-04-15T20:01:01.484Z,9.50
2023-04-15T20:03:29.777Z,11.20
2023-04-15T20:05:58.290Z,11.60
2023-04-15T20:08:26.452Z,12.10
2023-04-15T20:10:54.850Z,9.50
2023-04-15T20:13:25.579Z,14.00
2023-04-15T20:15:53.710Z,12.50
2023-04-15T20:18:21.888Z,14.30
2023-04-15T20:20:49.898Z,11.50
2023-04-15T20:23:18.016Z,10.60
2023-04-15T20:25:46.493Z,10.80
2023-04-15T20:28:15.981Z,13.70
2023-04-15T20:30:44.043Z,11.20
2023-04-15T20:33:13.826Z,10.50
2023-04-15T20:35:41.953Z,13.80
2023-04-15T20:38:09.942Z,12.60
2023-04-15T20:40:39.016Z,12.30
2023-04-15T20:43:08.719Z,11.90
2023-04-15T20:45:36.746Z,11.80
2023-04-15T20:48:05.520Z,11.80
2023-04-15T20:50:33.671Z,16.30
2023-04-15T20:53:01.737Z,12.20
2023-04-15T20:55:30.764Z,11.50
2023-04-15T20:57:59.136Z,12.30
2023-04-15T21:00:27.241Z,14.00
2023-04-15T21:02:55.375Z,12.20
2023-04-15T21:05:23.543Z,13.40
2023-04-15T21:07:51.535Z,13.70
2023-04-15T21:10:19.985Z,11.20
2023-04-15T21:12:48.109Z,11.40
2023-04-15T21:15:16.308Z,12.60
2023-04-15T21:17:44.493Z,14.20
2023-04-15T21:20:12.878Z,12.70
2023-04-15T21:22:41.295Z,15.00
2023-04-15T21:25:10.353Z,15.00
2023-04-15T21:27:39.056Z,13.40
2023-04-15T21:30:07.578Z,12.60
2023-04-15T21:32:36.400Z,12.40
2023-04-15T21:35:05.109Z,15.20
2023-04-15T21:37:33.278Z,13.10
2023-04-15T21:40:01.556Z,17.20
2023-04-15T21:42:31.023Z,12.70
2023-04-15T21:44:59.240Z,13.90
2023-04-15T21:47:27.585Z,16.40
2023-04-15T21:49:55.856Z,14.10
2023-04-15T21:52:24.115Z,14.50
2023-04-15T21:54:52.240Z,15.70
2023-04-15T21:57:20.265Z,18.20
2023-04-15T21:59:48.225Z,16.00
2023-04-15T22:02:16.420Z,16.40
2023-04-15T22:04:44.480Z,15.70
2023-04-15T22:07:12.533Z,15.20
2023-04-15T22:09:41.928Z,15.60
2023-04-15T22:12:09.943Z,16.80
2023-04-15T22:14:38.005Z,18.40
2023-04-15T22:17:06.267Z,15.90
2023-04-15T22:19:34.511Z,16.40
2023-04-15T22:22:02.702Z,19.10
2023-04-15T22:24:39.845Z,20.80
2023-04-15T22:27:09.169Z,17.10
2023-04-15T22:29:37.546Z,18.70
2023-04-15T22:32:06.032Z,19.10
2023-04-15T22:34:34.780Z,17.80
2023-04-15T22:37:02.896Z,19.80
2023-04-15T22:39:30.999Z,17.70
2023-04-15T22:41:59.158Z,17.40
2023-04-15T22:44:27.494Z,18.20
2023-04-15T22:46:55.673Z,21.20
2023-04-15T22:49:23.895Z,17.20
2023-04-15T22:51:52.083Z,18.30
2023-04-15T22:54:20.201Z,19.40
2023-04-15T22:56:48.474Z,20.80
2023-04-15T22:59:17.374Z,21.90
2023-04-15T23:01:46.178Z,23.00
2023-04-15T23:04:25.152Z,23.50
2023-04-15T23:06:55.868Z,20.00
2023-04-15T23:09:24.496Z,20.00
2023-04-15T23:11:52.686Z,20.20
2023-04-15T23:14:21.167Z,21.50
2023-04-15T23:16:49.534Z,20.40
2023-04-15T23:19:17.834Z,22.20
2023-04-15T23:21:45.876Z,23.20
2023-04-15T23:24:14.062Z,19.30
2023-04-15T23:26:42.929Z,21.50
2023-04-15T23:29:11.148Z,20.50
2023-04-15T23:31:39.384Z,21.70
2023-04-15T23:34:07.808Z,21.50
2023-04-15T23:36:36.024Z,22.30
2023-04-15T23:39:04.381Z,22.30
2023-04-15T23:41:32.868Z,26.50
2023-04-15T23:44:01.004Z,23.40
2023-04-15T23:46:29.392Z,22.20
2023-04-15T23:48:57.406Z,22.50
2023-04-15T23:51:25.444Z,23.70
2023-04-15T23:53:53.946Z,21.60
2023-04-15T23:56:21.993Z,22.80
2023-04-15T23:58:50.300Z,21.90
